Terminal Aerodrome Forecast
Issued by NWS

Home | Current Version | Previous Version | Text Only | Print | Product List | Glossary On
Versions: 1 2 3 4 5 6 7 8 9 10 11 12
975
FTUS43 KOAX 221120
TAFSNY
TAF
KSNY 221120Z 2212/2312 31012KT P6SM SCT120
     FM221600 32015G25KT P6SM SCT100
     FM230000 26010KT P6SM SCT100
     FM230600 21009KT P6SM OVC100=

USA.gov is the U.S. government's official web portal to all federal, state and local government web resources and services.